Time;durP1;ratioP1;P1;durP2;ratioP2;P2;SDS_P1;SDS_P2;PMS_P1;PMS_P2;Temp;Humidity;BMP_temperature;BMP_pressure;BME280_temperature;BME280_humidity;BME280_pressure;Samples;Min_cycle;Max_cycle;Signal;HPM_P1;HPM_P2
2023/07/19 00:00:53;;;;;;;10.07;4.85;;;;;;;;;;4861945;29;20046;-82
2023/07/19 00:03:38;;;;;;;8.75;5.35;;;;;;;;;;4871756;29;20049;-81
2023/07/19 00:06:25;;;;;;;9.57;5.95;;;;;;;;;;4869879;29;20049;-81
2023/07/19 00:09:09;;;;;;;11.13;5.85;;;;;;;;;;4867833;29;20050;-82
2023/07/19 00:11:54;;;;;;;8.00;5.80;;;;;;;;;;4867000;29;20065;-82
2023/07/19 00:14:41;;;;;;;9.02;5.45;;;;;;;;;;4861031;29;20041;-82
2023/07/19 00:17:27;;;;;;;8.73;5.28;;;;;;;;;;4861092;29;20046;-82
2023/07/19 00:20:14;;;;;;;7.97;5.10;;;;;;;;;;4867015;29;20045;-82
2023/07/19 00:23:00;;;;;;;12.18;5.32;;;;;;;;;;4861114;29;20049;-81
2023/07/19 00:25:45;;;;;;;9.43;5.13;;;;;;;;;;4867024;29;20061;-82
2023/07/19 00:28:31;;;;;;;7.97;5.07;;;;;;;;;;4867106;29;20049;-82
2023/07/19 00:31:17;;;;;;;7.20;5.05;;;;;;;;;;4866226;29;20049;-82
2023/07/19 00:34:02;;;;;;;7.68;4.95;;;;;;;;;;4867392;29;20061;-82
2023/07/19 00:36:47;;;;;;;6.35;4.97;;;;;;;;;;4860878;29;20049;-82
2023/07/19 00:39:33;;;;;;;9.25;4.72;;;;;;;;;;4852853;29;20049;-82
2023/07/19 00:42:19;;;;;;;11.40;5.20;;;;;;;;;;4859841;29;20050;-82
2023/07/19 00:45:04;;;;;;;7.15;4.60;;;;;;;;;;4860791;29;20050;-82
2023/07/19 00:47:49;;;;;;;8.43;4.88;;;;;;;;;;4860373;29;20700;-82
2023/07/19 00:50:36;;;;;;;8.18;4.68;;;;;;;;;;4866170;29;20489;-82
2023/07/19 00:53:24;;;;;;;8.77;4.32;;;;;;;;;;4867029;29;20045;-82
2023/07/19 00:56:10;;;;;;;10.55;4.80;;;;;;;;;;4860836;29;20053;-81
2023/07/19 00:58:56;;;;;;;12.13;5.30;;;;;;;;;;4866101;29;20396;-82
2023/07/19 01:01:44;;;;;;;8.82;4.75;;;;;;;;;;4860654;29;20053;-81
2023/07/19 01:04:29;;;;;;;10.80;6.68;;;;;;;;;;4860174;29;20050;-80
2023/07/19 01:07:16;;;;;;;10.45;5.65;;;;;;;;;;4866842;29;20053;-79
2023/07/19 01:10:02;;;;;;;11.68;5.93;;;;;;;;;;4866651;29;20488;-80
2023/07/19 01:13:08;;;;;;;10.25;6.00;;;;;;;;;;4866396;29;20065;-80
2023/07/19 01:15:54;;;;;;;8.32;5.00;;;;;;;;;;4865506;29;20041;-79
2023/07/19 01:18:39;;;;;;;6.60;4.95;;;;;;;;;;4860667;29;20045;-80
2023/07/19 01:21:25;;;;;;;8.32;4.80;;;;;;;;;;4865799;29;20054;-80
2023/07/19 01:24:10;;;;;;;11.10;5.05;;;;;;;;;;4861993;29;20480;-80
2023/07/19 01:26:57;;;;;;;10.55;5.63;;;;;;;;;;4870239;29;20408;-79
2023/07/19 01:29:43;;;;;;;7.70;5.40;;;;;;;;;;4869056;29;20120;-79
2023/07/19 01:32:28;;;;;;;9.15;5.43;;;;;;;;;;4864042;29;20049;-80
2023/07/19 01:35:14;;;;;;;13.02;5.53;;;;;;;;;;4869296;29;20054;-80
2023/07/19 01:37:59;;;;;;;16.30;6.28;;;;;;;;;;4863822;29;20037;-80
2023/07/19 01:40:45;;;;;;;13.57;5.82;;;;;;;;;;4856093;29;20049;-81
2023/07/19 01:43:31;;;;;;;18.75;6.00;;;;;;;;;;4866269;29;20049;-81
2023/07/19 01:46:16;;;;;;;12.30;5.70;;;;;;;;;;4862086;29;20053;-81
2023/07/19 01:49:01;;;;;;;12.73;6.18;;;;;;;;;;4869972;29;20041;-81
2023/07/19 01:51:46;;;;;;;9.32;5.63;;;;;;;;;;4868431;29;20408;-80
2023/07/19 01:54:33;;;;;;;12.80;6.18;;;;;;;;;;4863541;29;20053;-80
2023/07/19 01:57:18;;;;;;;14.02;5.93;;;;;;;;;;4869675;29;20046;-80
2023/07/19 02:00:04;;;;;;;13.32;6.03;;;;;;;;;;4868500;29;20053;-80
2023/07/19 02:03:01;;;;;;;13.10;5.85;;;;;;;;;;4863335;29;20045;-80
2023/07/19 02:05:56;;;;;;;25.75;6.25;;;;;;;;;;4863237;29;20049;-80
2023/07/19 02:08:42;;;;;;;10.82;5.45;;;;;;;;;;4863517;29;20045;-80
2023/07/19 02:11:27;;;;;;;12.35;5.65;;;;;;;;;;4863546;29;20045;-81
2023/07/19 02:14:13;;;;;;;32.08;16.63;;;;;;;;;;4868358;29;20065;-80
2023/07/19 02:16:58;;;;;;;17.10;8.60;;;;;;;;;;4864820;29;20041;-81
2023/07/19 02:19:43;;;;;;;11.52;6.05;;;;;;;;;;4869805;29;20484;-80
2023/07/19 02:22:29;;;;;;;10.48;6.28;;;;;;;;;;4863301;29;20046;-80
2023/07/19 02:25:14;;;;;;;16.92;6.18;;;;;;;;;;4863392;29;20058;-80
2023/07/19 02:28:00;;;;;;;12.20;5.80;;;;;;;;;;4862768;29;20049;-80
2023/07/19 02:30:46;;;;;;;10.82;6.05;;;;;;;;;;4863040;29;20046;-80
2023/07/19 02:33:33;;;;;;;30.52;16.35;;;;;;;;;;4869348;29;20042;-80
2023/07/19 02:36:18;;;;;;;13.88;7.20;;;;;;;;;;4861517;29;20404;-80
2023/07/19 02:39:04;;;;;;;13.10;5.95;;;;;;;;;;4868316;29;20495;-80
2023/07/19 02:41:50;;;;;;;12.52;6.10;;;;;;;;;;4862888;29;20487;-80
2023/07/19 02:44:35;;;;;;;9.70;6.35;;;;;;;;;;4857257;29;20400;-80
2023/07/19 02:47:21;;;;;;;10.23;6.75;;;;;;;;;;4844205;29;20053;-80
2023/07/19 02:50:07;;;;;;;9.98;6.53;;;;;;;;;;4868090;29;20049;-80
2023/07/19 02:52:52;;;;;;;12.40;7.10;;;;;;;;;;4868541;29;20053;-80
2023/07/19 02:55:38;;;;;;;9.52;6.20;;;;;;;;;;4868827;29;20054;-80
2023/07/19 02:58:24;;;;;;;12.65;6.63;;;;;;;;;;4867554;29;20053;-80
2023/07/19 03:01:14;;;;;;;13.32;6.80;;;;;;;;;;4868830;29;20411;-80
2023/07/19 03:04:02;;;;;;;14.13;7.00;;;;;;;;;;4863402;29;20053;-80
2023/07/19 03:06:49;;;;;;;23.42;7.32;;;;;;;;;;4862293;29;20042;-81
2023/07/19 03:09:35;;;;;;;19.88;7.65;;;;;;;;;;4861566;29;20045;-81
2023/07/19 03:12:20;;;;;;;18.52;7.25;;;;;;;;;;4867287;29;20057;-80
2023/07/19 03:15:06;;;;;;;17.90;7.32;;;;;;;;;;4854923;29;20053;-81
2023/07/19 03:17:51;;;;;;;15.73;7.60;;;;;;;;;;4867694;29;20038;-81
2023/07/19 03:20:37;;;;;;;14.77;7.70;;;;;;;;;;4862070;29;20061;-80
2023/07/19 03:23:23;;;;;;;15.02;8.07;;;;;;;;;;4861993;29;20049;-80
2023/07/19 03:26:09;;;;;;;17.38;7.95;;;;;;;;;;4867218;29;20049;-81
2023/07/19 03:28:55;;;;;;;12.95;7.20;;;;;;;;;;4854553;29;20046;-81
2023/07/19 03:31:40;;;;;;;14.80;8.05;;;;;;;;;;4867238;29;20480;-80
2023/07/19 03:34:26;;;;;;;14.52;7.03;;;;;;;;;;4867042;29;20041;-81
2023/07/19 03:37:12;;;;;;;12.40;7.47;;;;;;;;;;4867308;29;20045;-80
2023/07/19 03:39:58;;;;;;;14.23;7.45;;;;;;;;;;4861940;29;20045;-80
2023/07/19 03:42:44;;;;;;;15.48;7.20;;;;;;;;;;4866985;29;20053;-79
2023/07/19 03:45:29;;;;;;;11.48;6.88;;;;;;;;;;4868487;29;20049;-78
2023/07/19 03:48:15;;;;;;;12.88;7.13;;;;;;;;;;4866913;29;20061;-80
2023/07/19 03:51:01;;;;;;;10.43;6.80;;;;;;;;;;4867489;29;20402;-79
2023/07/19 03:53:47;;;;;;;12.45;6.68;;;;;;;;;;4867706;29;20078;-79
2023/07/19 03:56:33;;;;;;;21.05;6.78;;;;;;;;;;4866957;29;20053;-78
2023/07/19 03:59:18;;;;;;;12.77;7.18;;;;;;;;;;4860996;29;20053;-80
2023/07/19 04:02:04;;;;;;;17.35;6.95;;;;;;;;;;4860926;29;20049;-79
2023/07/19 04:04:49;;;;;;;15.65;6.53;;;;;;;;;;4862169;29;20057;-79
2023/07/19 04:07:35;;;;;;;11.40;6.60;;;;;;;;;;4861744;29;20046;-80
2023/07/19 04:10:20;;;;;;;15.05;7.15;;;;;;;;;;4866805;29;20424;-80
2023/07/19 04:13:11;;;;;;;17.55;7.45;;;;;;;;;;4868195;29;20057;-81
2023/07/19 04:15:58;;;;;;;17.38;8.27;;;;;;;;;;4866410;29;20491;-79
2023/07/19 04:18:43;;;;;;;14.65;8.18;;;;;;;;;;4853393;29;20042;-78
2023/07/19 04:21:29;;;;;;;15.45;9.15;;;;;;;;;;4861095;29;20057;-78
2023/07/19 04:24:14;;;;;;;17.95;8.38;;;;;;;;;;4853398;29;20041;-78
2023/07/19 04:27:00;;;;;;;16.83;9.88;;;;;;;;;;4866113;29;20053;-78
2023/07/19 04:29:46;;;;;;;13.45;8.13;;;;;;;;;;4866261;29;20049;-78
2023/07/19 04:32:31;;;;;;;11.57;7.88;;;;;;;;;;4866725;29;20046;-79
2023/07/19 04:35:17;;;;;;;15.63;7.57;;;;;;;;;;4867728;29;20447;-78
2023/07/19 04:38:04;;;;;;;18.42;7.32;;;;;;;;;;4866348;29;20041;-79
2023/07/19 04:40:50;;;;;;;16.45;7.30;;;;;;;;;;4865861;29;20045;-79
2023/07/19 04:43:35;;;;;;;13.07;7.22;;;;;;;;;;4866214;29;20403;-79
2023/07/19 04:46:25;;;;;;;17.30;7.60;;;;;;;;;;4865813;29;20041;-80
2023/07/19 04:49:10;;;;;;;16.40;7.80;;;;;;;;;;4865827;29;20042;-80
2023/07/19 04:51:56;;;;;;;17.20;7.70;;;;;;;;;;4866275;29;20053;-80
2023/07/19 04:54:41;;;;;;;13.30;7.15;;;;;;;;;;4867837;29;20053;-79
2023/07/19 04:57:26;;;;;;;12.02;6.97;;;;;;;;;;4867017;29;20046;-81
2023/07/19 05:00:12;;;;;;;12.63;7.28;;;;;;;;;;4864778;29;20057;-80
2023/07/19 05:02:56;;;;;;;10.27;6.40;;;;;;;;;;4868375;29;20057;-79
2023/07/19 05:05:42;;;;;;;10.85;6.50;;;;;;;;;;4864617;29;20050;-79
2023/07/19 05:08:28;;;;;;;10.95;7.30;;;;;;;;;;4869332;29;20049;-79
2023/07/19 05:11:13;;;;;;;10.23;6.47;;;;;;;;;;4862991;29;20404;-78
2023/07/19 05:13:59;;;;;;;12.90;6.82;;;;;;;;;;4843812;29;20092;-77
2023/07/19 05:16:44;;;;;;;11.30;6.72;;;;;;;;;;4869665;29;20049;-78
2023/07/19 05:19:29;;;;;;;10.60;7.13;;;;;;;;;;4870569;29;20045;-77
2023/07/19 05:22:15;;;;;;;9.82;6.45;;;;;;;;;;4869251;29;20049;-79
2023/07/19 05:25:00;;;;;;;18.80;6.70;;;;;;;;;;4863939;29;20042;-79
2023/07/19 05:27:46;;;;;;;11.07;6.50;;;;;;;;;;4864444;29;20038;-79
2023/07/19 05:30:31;;;;;;;11.93;7.13;;;;;;;;;;4863961;29;20049;-80
2023/07/19 05:33:17;;;;;;;16.45;6.50;;;;;;;;;;4863464;29;20053;-79
2023/07/19 05:36:03;;;;;;;8.23;6.30;;;;;;;;;;4863810;29;20049;-80
2023/07/19 05:38:48;;;;;;;11.05;6.20;;;;;;;;;;4863778;29;20053;-80
2023/07/19 05:41:34;;;;;;;11.70;6.35;;;;;;;;;;4863867;29;20046;-80
2023/07/19 05:44:19;;;;;;;13.10;6.20;;;;;;;;;;4870038;29;20045;-80
2023/07/19 05:47:05;;;;;;;8.88;5.93;;;;;;;;;;4869498;29;20050;-80
2023/07/19 05:49:51;;;;;;;12.85;6.68;;;;;;;;;;4870226;29;20045;-80
2023/07/19 05:52:37;;;;;;;11.68;6.57;;;;;;;;;;4870793;29;20053;-79
2023/07/19 05:55:23;;;;;;;15.23;6.57;;;;;;;;;;4868846;29;20045;-79
2023/07/19 05:58:09;;;;;;;12.73;6.20;;;;;;;;;;4863939;29;20053;-79
2023/07/19 06:00:56;;;;;;;18.75;6.65;;;;;;;;;;4862843;29;20432;-80
2023/07/19 06:03:40;;;;;;;12.05;7.00;;;;;;;;;;4862386;29;20500;-80
2023/07/19 06:06:29;;;;;;;12.82;6.68;;;;;;;;;;4863610;29;20408;-79
2023/07/19 06:09:16;;;;;;;11.98;6.80;;;;;;;;;;4869031;29;20049;-80
2023/07/19 06:12:03;;;;;;;11.88;6.95;;;;;;;;;;4863222;29;20049;-80
2023/07/19 06:14:48;;;;;;;11.15;6.38;;;;;;;;;;4863360;29;20053;-78
2023/07/19 06:17:33;;;;;;;9.75;7.00;;;;;;;;;;4863252;29;20050;-78
2023/07/19 06:20:19;;;;;;;12.15;6.38;;;;;;;;;;4849300;29;20046;-79
2023/07/19 06:23:04;;;;;;;10.93;6.88;;;;;;;;;;4862913;29;20046;-81
2023/07/19 06:25:49;;;;;;;11.35;6.97;;;;;;;;;;4869492;29;20049;-81
2023/07/19 06:28:35;;;;;;;13.23;6.30;;;;;;;;;;4868207;29;20050;-81
2023/07/19 06:31:20;;;;;;;10.48;7.10;;;;;;;;;;4863465;29;20041;-80
2023/07/19 06:34:07;;;;;;;11.52;7.13;;;;;;;;;;4862971;29;20492;-80
2023/07/19 06:36:52;;;;;;;11.57;6.95;;;;;;;;;;4866175;29;20045;-80
2023/07/19 06:39:38;;;;;;;10.07;6.90;;;;;;;;;;4865755;29;20484;-81
2023/07/19 06:42:24;;;;;;;13.07;7.30;;;;;;;;;;4862704;29;20428;-81
2023/07/19 06:45:10;;;;;;;10.60;6.57;;;;;;;;;;4862826;29;20427;-79
2023/07/19 06:47:55;;;;;;;13.88;7.40;;;;;;;;;;4862465;29;20488;-80
2023/07/19 06:50:41;;;;;;;11.15;7.00;;;;;;;;;;4876065;29;20049;-77
2023/07/19 06:53:26;;;;;;;7.43;6.63;;;;;;;;;;4868890;29;20695;-80
2023/07/19 06:56:11;;;;;;;12.13;7.43;;;;;;;;;;4862655;29;20049;-79
2023/07/19 06:58:57;;;;;;;15.10;7.03;;;;;;;;;;4862724;29;20045;-79
2023/07/19 07:01:43;;;;;;;10.57;7.40;;;;;;;;;;4861914;29;20053;-79
2023/07/19 07:04:29;;;;;;;12.52;7.28;;;;;;;;;;4863416;29;20054;-79
2023/07/19 07:07:19;;;;;;;12.93;7.22;;;;;;;;;;4862207;29;20053;-79
2023/07/19 07:10:04;;;;;;;15.05;7.70;;;;;;;;;;4868581;29;20050;-80
2023/07/19 07:12:51;;;;;;;12.30;7.35;;;;;;;;;;4862311;29;20049;-79
2023/07/19 07:15:37;;;;;;;10.88;6.82;;;;;;;;;;4861820;29;20049;-80
2023/07/19 07:18:22;;;;;;;10.90;8.07;;;;;;;;;;4862106;29;20041;-82
2023/07/19 07:21:09;;;;;;;11.80;6.97;;;;;;;;;;4867682;29;20049;-80
2023/07/19 07:23:55;;;;;;;8.77;6.95;;;;;;;;;;4861814;29;20049;-81
2023/07/19 07:26:40;;;;;;;11.68;7.32;;;;;;;;;;4868026;29;20049;-79
2023/07/19 07:29:26;;;;;;;10.18;6.88;;;;;;;;;;4861834;29;20049;-80
2023/07/19 07:32:11;;;;;;;15.68;7.10;;;;;;;;;;4861892;29;20053;-76
2023/07/19 07:34:57;;;;;;;10.00;7.07;;;;;;;;;;4867963;29;20045;-73
2023/07/19 07:37:42;;;;;;;9.85;7.07;;;;;;;;;;4861652;29;20050;-73
2023/07/19 07:40:28;;;;;;;14.18;7.63;;;;;;;;;;4861489;29;20057;-73
2023/07/19 07:43:14;;;;;;;12.65;7.65;;;;;;;;;;4861749;29;20392;-76
2023/07/19 07:46:00;;;;;;;11.70;6.70;;;;;;;;;;4867792;29;20057;-76
2023/07/19 07:48:46;;;;;;;11.27;6.80;;;;;;;;;;4861504;29;20053;-76
2023/07/19 07:51:33;;;;;;;10.27;7.00;;;;;;;;;;4861359;29;20053;-76
2023/07/19 07:54:18;;;;;;;12.80;6.90;;;;;;;;;;4861544;29;20049;-77
2023/07/19 07:57:04;;;;;;;11.68;6.60;;;;;;;;;;4860385;29;20404;-76
2023/07/19 07:59:49;;;;;;;13.23;6.10;;;;;;;;;;4861354;29;20049;-76
2023/07/19 08:02:34;;;;;;;10.82;6.78;;;;;;;;;;4866830;29;20053;-77
2023/07/19 08:05:21;;;;;;;11.80;6.78;;;;;;;;;;4860850;29;20049;-77
2023/07/19 08:08:06;;;;;;;9.98;6.32;;;;;;;;;;4860734;29;20053;-77
2023/07/19 08:10:52;;;;;;;8.07;6.10;;;;;;;;;;4867049;29;20049;-76
2023/07/19 08:13:38;;;;;;;11.43;6.15;;;;;;;;;;4866612;29;20049;-76
2023/07/19 08:16:23;;;;;;;13.38;7.40;;;;;;;;;;4860504;29;20046;-73
2023/07/19 08:19:08;;;;;;;10.13;6.13;;;;;;;;;;4860621;29;20050;-75
2023/07/19 08:22:03;;;;;;;14.13;6.55;;;;;;;;;;4866931;29;20050;-74
2023/07/19 08:24:48;;;;;;;11.10;6.18;;;;;;;;;;4860747;29;20050;-75
2023/07/19 08:27:34;;;;;;;9.20;5.63;;;;;;;;;;4860536;29;20049;-74
2023/07/19 08:30:19;;;;;;;11.40;6.57;;;;;;;;;;4860903;29;20061;-74
2023/07/19 08:33:08;;;;;;;12.65;6.47;;;;;;;;;;4860661;29;20408;-74
2023/07/19 08:35:53;;;;;;;15.35;6.22;;;;;;;;;;4860760;29;20083;-74
2023/07/19 08:38:39;;;;;;;17.98;7.00;;;;;;;;;;4867184;29;20045;-75
2023/07/19 08:41:28;;;;;;;14.93;6.20;;;;;;;;;;4860518;29;20049;-75
2023/07/19 08:44:14;;;;;;;13.25;5.80;;;;;;;;;;4860902;29;20053;-74
2023/07/19 08:47:02;;;;;;;11.43;6.15;;;;;;;;;;4866942;29;20049;-73
2023/07/19 08:49:48;;;;;;;15.35;6.40;;;;;;;;;;4860266;29;20399;-74
2023/07/19 08:52:34;;;;;;;11.23;5.68;;;;;;;;;;4860614;29;20049;-73
2023/07/19 08:55:24;;;;;;;13.07;5.75;;;;;;;;;;4866478;29;20045;-75
2023/07/19 08:58:09;;;;;;;13.50;5.95;;;;;;;;;;4866633;29;20053;-73
2023/07/19 09:00:55;;;;;;;13.23;6.10;;;;;;;;;;4860572;29;20050;-72
2023/07/19 09:03:41;;;;;;;10.82;5.93;;;;;;;;;;4859843;29;20496;-73
2023/07/19 09:06:30;;;;;;;12.63;5.68;;;;;;;;;;4859655;29;20404;-76
2023/07/19 09:09:16;;;;;;;10.38;5.82;;;;;;;;;;4865885;29;20049;-75
2023/07/19 09:12:07;;;;;;;9.50;6.10;;;;;;;;;;4865581;29;20396;-76
2023/07/19 09:14:56;;;;;;;11.93;6.00;;;;;;;;;;4859589;29;20049;-74
2023/07/19 09:17:48;;;;;;;15.52;6.20;;;;;;;;;;4859465;29;20054;-74
2023/07/19 09:20:37;;;;;;;14.25;6.22;;;;;;;;;;4859902;29;20050;-73
2023/07/19 09:23:22;;;;;;;16.13;6.10;;;;;;;;;;4865776;29;20057;-73
2023/07/19 09:26:08;;;;;;;13.77;5.95;;;;;;;;;;4865537;29;20054;-74
2023/07/19 09:28:55;;;;;;;9.82;6.15;;;;;;;;;;4859262;29;20042;-74
2023/07/19 09:32:02;;;;;;;15.52;5.80;;;;;;;;;;4859423;29;20483;-73
2023/07/19 09:34:48;;;;;;;29.67;6.70;;;;;;;;;;4859542;29;20488;-74
2023/07/19 09:37:34;;;;;;;11.23;6.15;;;;;;;;;;4865855;29;20396;-77
2023/07/19 09:40:19;;;;;;;12.98;5.45;;;;;;;;;;4859558;29;20049;-78
2023/07/19 09:43:05;;;;;;;11.48;5.60;;;;;;;;;;4865438;29;20049;-74
2023/07/19 09:45:51;;;;;;;16.35;5.95;;;;;;;;;;4861213;29;20057;-75
2023/07/19 09:48:37;;;;;;;13.48;5.85;;;;;;;;;;4862392;29;20041;-75
2023/07/19 09:51:22;;;;;;;18.17;6.35;;;;;;;;;;4862497;29;20053;-75
2023/07/19 09:54:15;;;;;;;14.60;6.53;;;;;;;;;;4868394;29;20419;-75
2023/07/19 09:57:04;;;;;;;16.60;6.10;;;;;;;;;;4862491;29;20045;-76
2023/07/19 09:59:51;;;;;;;15.70;5.95;;;;;;;;;;4862467;29;20061;-73
2023/07/19 10:02:37;;;;;;;15.77;5.80;;;;;;;;;;4821731;29;1208829;-73
2023/07/19 10:05:28;;;;;;;16.02;5.68;;;;;;;;;;4863684;29;20049;-74
2023/07/19 10:08:15;;;;;;;17.35;5.43;;;;;;;;;;4862868;29;20041;-75
2023/07/19 10:11:00;;;;;;;10.50;5.35;;;;;;;;;;4863448;29;20045;-74
2023/07/19 10:13:56;;;;;;;12.88;5.70;;;;;;;;;;4863501;29;20046;-74
2023/07/19 10:16:48;;;;;;;7.40;4.95;;;;;;;;;;4862808;29;20054;-74
2023/07/19 10:19:35;;;;;;;7.30;5.15;;;;;;;;;;4863294;29;20045;-73
2023/07/19 10:22:22;;;;;;;9.32;5.00;;;;;;;;;;4863067;29;20400;-74
2023/07/19 10:25:07;;;;;;;10.25;5.03;;;;;;;;;;4869543;29;20053;-73
2023/07/19 10:28:03;;;;;;;13.85;5.43;;;;;;;;;;4869010;29;20053;-73
2023/07/19 10:30:52;;;;;;;8.85;5.45;;;;;;;;;;4863244;29;20041;-74
2023/07/19 10:33:38;;;;;;;8.15;5.10;;;;;;;;;;4862876;29;20049;-74
2023/07/19 10:36:24;;;;;;;13.82;5.38;;;;;;;;;;4862836;29;20042;-73
2023/07/19 10:39:09;;;;;;;14.68;5.13;;;;;;;;;;4862890;29;20049;-73
2023/07/19 10:41:55;;;;;;;12.05;5.28;;;;;;;;;;4863154;29;20041;-74
2023/07/19 10:44:40;;;;;;;6.65;4.82;;;;;;;;;;4868569;29;20408;-75
2023/07/19 10:47:26;;;;;;;13.88;5.00;;;;;;;;;;4862842;29;20084;-74
2023/07/19 10:50:12;;;;;;;13.25;4.88;;;;;;;;;;4862232;29;20049;-74
2023/07/19 10:52:57;;;;;;;12.43;5.10;;;;;;;;;;4868925;29;20511;-73
2023/07/19 10:55:45;;;;;;;7.20;4.80;;;;;;;;;;4868322;29;20053;-73
2023/07/19 10:58:31;;;;;;;8.32;4.55;;;;;;;;;;4862211;29;20049;-75
2023/07/19 11:01:16;;;;;;;8.48;4.50;;;;;;;;;;4868806;29;20404;-75
2023/07/19 11:04:05;;;;;;;13.15;4.57;;;;;;;;;;4862350;29;20500;-76
2023/07/19 11:06:57;;;;;;;8.50;4.20;;;;;;;;;;4862275;29;20423;-75
2023/07/19 11:09:48;;;;;;;10.55;4.70;;;;;;;;;;4862360;29;20045;-75
2023/07/19 11:12:35;;;;;;;7.03;4.38;;;;;;;;;;4868398;29;20045;-74
2023/07/19 11:15:24;;;;;;;12.18;4.53;;;;;;;;;;4862198;29;20054;-75
2023/07/19 11:18:09;;;;;;;12.48;4.20;;;;;;;;;;4868148;29;20049;-75
2023/07/19 11:20:58;;;;;;;10.95;3.92;;;;;;;;;;4862043;29;20049;-75
2023/07/19 11:23:45;;;;;;;7.47;4.32;;;;;;;;;;4869132;29;20480;-75
2023/07/19 11:26:31;;;;;;;9.85;4.15;;;;;;;;;;4869155;29;20415;-77
2023/07/19 11:29:17;;;;;;;14.57;4.22;;;;;;;;;;4854287;29;20050;-76
2023/07/19 11:32:31;;;;;;;10.02;3.88;;;;;;;;;;4868152;29;20515;-76
2023/07/19 11:35:28;;;;;;;11.85;4.25;;;;;;;;;;4858184;29;20049;-75
2023/07/19 11:38:17;;;;;;;9.02;3.78;;;;;;;;;;4861858;29;20499;-76
2023/07/19 11:41:03;;;;;;;6.97;3.30;;;;;;;;;;4861594;29;20045;-75
2023/07/19 11:43:52;;;;;;;7.55;3.67;;;;;;;;;;4867027;29;20053;-76
2023/07/19 11:46:37;;;;;;;7.20;2.97;;;;;;;;;;4853587;29;20049;-76
2023/07/19 11:49:23;;;;;;;6.97;3.35;;;;;;;;;;4866399;29;20049;-76
2023/07/19 11:52:09;;;;;;;9.15;3.83;;;;;;;;;;4862796;29;20045;-78
2023/07/19 11:54:55;;;;;;;9.50;3.10;;;;;;;;;;4861747;29;20045;-74
2023/07/19 11:57:42;;;;;;;5.70;3.28;;;;;;;;;;4867627;29;20053;-74
2023/07/19 12:00:27;;;;;;;7.97;3.53;;;;;;;;;;4861292;29;20049;-73
2023/07/19 12:03:14;;;;;;;11.20;3.50;;;;;;;;;;4865863;29;20058;-75
2023/07/19 12:05:59;;;;;;;9.05;3.20;;;;;;;;;;4861808;29;20042;-74
2023/07/19 12:08:45;;;;;;;10.30;3.35;;;;;;;;;;4866625;29;20049;-75
2023/07/19 12:11:31;;;;;;;7.28;2.47;;;;;;;;;;4866717;29;20064;-75
2023/07/19 12:14:16;;;;;;;10.00;3.20;;;;;;;;;;4860096;29;20050;-76
2023/07/19 12:17:04;;;;;;;7.82;3.33;;;;;;;;;;4860908;29;20041;-75
2023/07/19 12:19:49;;;;;;;6.63;2.78;;;;;;;;;;4867608;29;20407;-73
2023/07/19 12:22:36;;;;;;;8.95;2.90;;;;;;;;;;4866558;29;20041;-74
2023/07/19 12:25:21;;;;;;;8.35;2.70;;;;;;;;;;4867607;29;20050;-72
2023/07/19 12:28:06;;;;;;;6.50;2.60;;;;;;;;;;4866292;29;20049;-77
2023/07/19 12:30:54;;;;;;;5.95;2.63;;;;;;;;;;4860846;29;20049;-76
2023/07/19 12:33:40;;;;;;;6.75;2.45;;;;;;;;;;4867301;29;20049;-75
2023/07/19 12:36:25;;;;;;;7.22;2.35;;;;;;;;;;4860784;29;20145;-76
2023/07/19 12:39:11;;;;;;;7.63;2.75;;;;;;;;;;4866950;29;20050;-76
2023/07/19 12:41:57;;;;;;;9.20;2.78;;;;;;;;;;4867058;29;20053;-75
2023/07/19 12:44:42;;;;;;;9.27;2.50;;;;;;;;;;4869096;29;20049;-82
2023/07/19 12:47:30;;;;;;;10.57;2.65;;;;;;;;;;4866782;29;20057;-80
2023/07/19 12:50:16;;;;;;;7.75;2.90;;;;;;;;;;4866949;29;20045;-82
2023/07/19 12:53:01;;;;;;;10.65;2.92;;;;;;;;;;4867060;29;20053;-80
2023/07/19 12:55:47;;;;;;;7.38;2.72;;;;;;;;;;4861098;29;20045;-82
2023/07/19 12:58:32;;;;;;;11.48;3.25;;;;;;;;;;4860990;29;20045;-76
2023/07/19 13:01:18;;;;;;;9.75;2.83;;;;;;;;;;4866668;29;20492;-76
2023/07/19 13:04:05;;;;;;;8.75;2.90;;;;;;;;;;4862121;29;20492;-76
2023/07/19 13:06:54;;;;;;;8.35;2.70;;;;;;;;;;4865362;29;20042;-76
2023/07/19 13:09:40;;;;;;;14.27;3.05;;;;;;;;;;4860510;29;20050;-75
2023/07/19 13:12:25;;;;;;;7.88;2.63;;;;;;;;;;4866127;29;20049;-74
2023/07/19 13:15:11;;;;;;;7.30;2.90;;;;;;;;;;4860246;29;20057;-74
2023/07/19 13:17:56;;;;;;;9.60;2.83;;;;;;;;;;4860677;29;20400;-73
2023/07/19 13:20:42;;;;;;;9.95;2.83;;;;;;;;;;4868051;29;20042;-74
2023/07/19 13:23:27;;;;;;;7.70;2.88;;;;;;;;;;4863149;29;20050;-74
2023/07/19 13:26:13;;;;;;;7.57;2.80;;;;;;;;;;4870086;29;20045;-74
2023/07/19 13:28:59;;;;;;;10.00;3.00;;;;;;;;;;4869891;29;20799;-73
2023/07/19 13:31:44;;;;;;;10.13;2.97;;;;;;;;;;4864227;29;20408;-74
2023/07/19 13:34:29;;;;;;;9.63;2.92;;;;;;;;;;4870334;29;20049;-74
2023/07/19 13:37:15;;;;;;;9.15;2.80;;;;;;;;;;4863413;29;20488;-74
2023/07/19 13:40:01;;;;;;;9.57;3.10;;;;;;;;;;4864160;29;20053;-73
2023/07/19 13:42:47;;;;;;;7.57;2.67;;;;;;;;;;4863927;29;20432;-74
2023/07/19 13:45:33;;;;;;;6.00;2.53;;;;;;;;;;4863524;29;20045;-76
2023/07/19 13:48:20;;;;;;;8.15;2.90;;;;;;;;;;4863781;29;20383;-75
2023/07/19 13:51:05;;;;;;;6.93;3.05;;;;;;;;;;4862639;29;20049;-74
2023/07/19 13:53:50;;;;;;;8.13;3.10;;;;;;;;;;4869906;29;20045;-74
2023/07/19 13:56:36;;;;;;;8.20;2.97;;;;;;;;;;4869810;29;20042;-75
2023/07/19 13:59:21;;;;;;;10.73;3.47;;;;;;;;;;4869542;29;20480;-74
2023/07/19 14:02:07;;;;;;;13.65;4.05;;;;;;;;;;4869530;29;20050;-74
2023/07/19 14:04:53;;;;;;;9.18;3.72;;;;;;;;;;4863417;29;20053;-75
2023/07/19 14:07:39;;;;;;;10.43;3.53;;;;;;;;;;4863344;29;20045;-73
2023/07/19 14:10:25;;;;;;;9.85;3.97;;;;;;;;;;4863393;29;20420;-74
2023/07/19 14:13:10;;;;;;;8.27;3.38;;;;;;;;;;4863233;29;20499;-74
2023/07/19 14:15:55;;;;;;;8.50;3.42;;;;;;;;;;4869195;29;20041;-75
2023/07/19 14:18:41;;;;;;;11.02;3.85;;;;;;;;;;4863600;29;20424;-75
2023/07/19 14:21:26;;;;;;;8.13;3.75;;;;;;;;;;4869191;29;20049;-75
2023/07/19 14:24:11;;;;;;;8.50;3.75;;;;;;;;;;4869400;29;20049;-75
2023/07/19 14:26:57;;;;;;;13.20;3.80;;;;;;;;;;4862754;29;20058;-75
2023/07/19 14:29:42;;;;;;;12.65;3.70;;;;;;;;;;4862647;29;20049;-74
2023/07/19 14:32:28;;;;;;;9.20;3.60;;;;;;;;;;4869197;29;20050;-74
2023/07/19 14:35:14;;;;;;;9.52;3.78;;;;;;;;;;4868049;29;20395;-73
2023/07/19 14:37:59;;;;;;;12.23;4.32;;;;;;;;;;4863065;29;20053;-74
2023/07/19 14:40:45;;;;;;;8.30;4.03;;;;;;;;;;4863272;29;20046;-74
2023/07/19 14:43:31;;;;;;;9.88;4.07;;;;;;;;;;4862699;29;20049;-74
2023/07/19 14:46:16;;;;;;;11.55;4.18;;;;;;;;;;4868963;29;20049;-76
2023/07/19 14:49:02;;;;;;;9.02;4.10;;;;;;;;;;4862564;29;20416;-76
2023/07/19 14:51:47;;;;;;;9.35;4.00;;;;;;;;;;4868820;29;20403;-76
2023/07/19 14:54:33;;;;;;;15.52;3.92;;;;;;;;;;4862890;29;20484;-75
2023/07/19 14:57:18;;;;;;;14.55;4.20;;;;;;;;;;4868507;29;20045;-75
2023/07/19 15:00:09;;;;;;;11.63;4.43;;;;;;;;;;4868782;29;20038;-77
2023/07/19 15:02:54;;;;;;;8.07;3.72;;;;;;;;;;4867406;29;20058;-77
2023/07/19 15:05:40;;;;;;;15.52;4.07;;;;;;;;;;4862197;29;20050;-77
2023/07/19 15:08:26;;;;;;;16.58;4.15;;;;;;;;;;4868776;29;20041;-77
2023/07/19 15:11:11;;;;;;;9.55;4.10;;;;;;;;;;4868390;29;20049;-78
2023/07/19 15:13:57;;;;;;;10.57;4.57;;;;;;;;;;4862479;29;20038;-78
2023/07/19 15:16:42;;;;;;;13.50;4.57;;;;;;;;;;4861921;29;20049;-75
2023/07/19 15:19:28;;;;;;;7.03;4.63;;;;;;;;;;4862093;29;20038;-74
2023/07/19 15:22:13;;;;;;;9.02;4.10;;;;;;;;;;4861920;29;20045;-75
2023/07/19 15:24:59;;;;;;;12.93;4.38;;;;;;;;;;4867248;29;20416;-73
2023/07/19 15:27:45;;;;;;;12.73;4.47;;;;;;;;;;4867761;29;20049;-74
2023/07/19 15:30:30;;;;;;;10.32;4.18;;;;;;;;;;4861801;29;20053;-73
2023/07/19 15:33:16;;;;;;;11.95;4.82;;;;;;;;;;4861810;29;20057;-73
2023/07/19 15:36:01;;;;;;;9.65;3.95;;;;;;;;;;4867954;29;20041;-72
2023/07/19 15:38:46;;;;;;;9.73;3.88;;;;;;;;;;4861728;29;20491;-74
2023/07/19 15:41:32;;;;;;;9.75;3.90;;;;;;;;;;4861242;29;20045;-74
2023/07/19 15:44:17;;;;;;;13.43;4.15;;;;;;;;;;4861169;29;20053;-74
2023/07/19 15:47:04;;;;;;;7.68;3.90;;;;;;;;;;4865805;29;20395;-74
2023/07/19 15:49:49;;;;;;;9.93;3.90;;;;;;;;;;4858941;29;20399;-73
2023/07/19 15:52:35;;;;;;;12.18;4.15;;;;;;;;;;4867824;29;20041;-74
2023/07/19 15:55:22;;;;;;;10.48;3.85;;;;;;;;;;4866656;29;20049;-75
2023/07/19 15:58:07;;;;;;;10.27;3.70;;;;;;;;;;4860467;29;20045;-74
2023/07/19 16:00:53;;;;;;;12.48;4.18;;;;;;;;;;4861088;29;20419;-74
2023/07/19 16:03:40;;;;;;;10.80;4.20;;;;;;;;;;4860285;29;20050;-74
2023/07/19 16:06:25;;;;;;;8.15;3.85;;;;;;;;;;4860265;29;20053;-73
2023/07/19 16:09:11;;;;;;;11.55;4.35;;;;;;;;;;4861437;29;20049;-74
2023/07/19 16:11:56;;;;;;;10.02;4.30;;;;;;;;;;4861146;29;20056;-73
2023/07/19 16:18:09;;;;;;;12.52;4.22;;;;;;;;;;4861440;29;20049;-76
2023/07/19 16:20:55;;;;;;;9.55;4.40;;;;;;;;;;4861660;29;20153;-74
2023/07/19 16:23:49;;;;;;;12.38;4.60;;;;;;;;;;4861053;29;20488;-76
2023/07/19 16:26:35;;;;;;;13.77;4.72;;;;;;;;;;4861271;29;20137;-76
2023/07/19 16:29:20;;;;;;;11.68;4.68;;;;;;;;;;4860419;29;20045;-75